Archival Weather

Norman Y Mineta San Jose Intl

San Jose, California (KSJC)

Report from: Wednesday, February 21, 2024 9:20 AM PST
Current time: Monday, June 17, 2024 12:17 AM PDT

Current weather – Weather history – Daily summaries
Weather forecast

Temperature10.0°C (50.0°F)
Wind chill9.1°C (48.5°F)
Dew point8.9°C (48.0°F)
Winds 4 kts (2.1 m/s, 4.6 mph) Southeast (130°)
Visibility8 mi. (12.9 km)
Clouds Few clouds 0 ft. (0 m)
Scattered clouds 200 ft. (61 m)
Altimeter30.17 in.Hg (1022 mB)
Relative humidity93 %
Density altitude-721 ft. (-220 m)
Remarks Automated weather observing station with precipitation discriminator
Visibility east southeast
Flight conditions Visual Meteorological Conditions
Raw dataKSJC 211720Z 13004KT 8SM R30L/4000VP6000FT FEW000 SCT002 10/09 A3017 RMK AO2 VIS E-SE 1 1/2 T01000089
An error has occurred. This application may no longer respond until reloaded. Reload 🗙